createdAt,value
2022-09-12T00:04:53.663Z,1.25
2022-09-12T00:09:55.514Z,1.33
2022-09-12T00:14:57.238Z,1.83
2022-09-12T00:19:59.602Z,1.77
2022-09-12T00:25:01.441Z,1.40
2022-09-12T00:30:04.041Z,1.40
2022-09-12T00:35:06.445Z,1.55
2022-09-12T00:40:08.501Z,1.50
2022-09-12T00:45:23.453Z,1.98
2022-09-12T00:50:26.174Z,1.98
2022-09-12T00:55:40.300Z,1.70
2022-09-12T01:00:42.108Z,1.45
2022-09-12T01:05:59.917Z,1.73
2022-09-12T01:11:02.081Z,1.83
2022-09-12T01:16:06.526Z,1.70
2022-09-12T01:21:17.324Z,1.58
2022-09-12T01:26:21.952Z,1.73
2022-09-12T01:31:26.820Z,1.58
2022-09-12T01:36:41.450Z,1.65
2022-09-12T01:41:54.754Z,1.30
2022-09-12T01:47:21.823Z,1.80
2022-09-12T01:52:29.877Z,2.13
2022-09-12T01:57:44.228Z,1.40
2022-09-12T02:03:03.676Z,1.88
2022-09-12T02:08:19.727Z,2.00
2022-09-12T02:13:43.513Z,1.35
2022-09-12T02:18:50.535Z,2.00
2022-09-12T02:23:58.939Z,1.42
2022-09-12T02:29:00.748Z,1.40
2022-09-12T02:34:27.610Z,1.85
2022-09-12T02:39:29.497Z,1.35
2022-09-12T02:44:33.837Z,2.00
2022-09-12T02:49:35.967Z,1.60
2022-09-12T02:54:38.416Z,1.48
2022-09-12T02:59:40.290Z,1.67
2022-09-12T03:04:54.400Z,1.40
2022-09-12T03:10:03.369Z,1.42
2022-09-12T03:15:27.123Z,1.63
2022-09-12T03:20:50.939Z,1.58
2022-09-12T03:26:09.765Z,1.17
2022-09-12T03:31:14.673Z,1.13
2022-09-12T03:36:23.317Z,1.02
2022-09-12T03:41:25.258Z,1.33
2022-09-12T03:46:27.021Z,1.70
2022-09-12T03:51:29.133Z,1.42
2022-09-12T03:56:31.098Z,1.42
2022-09-12T04:01:33.574Z,1.08
2022-09-12T04:06:35.709Z,1.20
2022-09-12T04:11:37.548Z,1.67
2022-09-12T04:16:39.643Z,1.90
2022-09-12T04:21:41.570Z,1.23
2022-09-12T04:26:43.769Z,1.73
2022-09-12T04:31:45.374Z,1.38
2022-09-12T04:36:46.995Z,1.90
2022-09-12T04:41:48.772Z,1.63
2022-09-12T04:46:50.572Z,1.33
2022-09-12T04:51:53.447Z,1.92
2022-09-12T04:56:55.497Z,1.40
2022-09-12T05:01:57.256Z,1.40
2022-09-12T05:06:59.156Z,1.38
2022-09-12T05:12:05.534Z,2.13
2022-09-12T05:17:07.719Z,2.92
2022-09-12T05:22:09.952Z,3.05
2022-09-12T05:27:11.806Z,2.53
2022-09-12T05:32:13.629Z,2.60
2022-09-12T05:37:15.398Z,2.40
2022-09-12T05:42:17.174Z,3.17
2022-09-12T05:47:19.231Z,2.70
2022-09-12T05:52:21.211Z,2.97
2022-09-12T05:57:23.132Z,3.35
2022-09-12T06:02:24.985Z,3.08
2022-09-12T06:07:26.864Z,3.17
2022-09-12T06:12:30.347Z,3.53
2022-09-12T06:17:32.650Z,3.38
2022-09-12T06:22:34.534Z,3.78
2022-09-12T06:27:36.430Z,3.08
2022-09-12T06:32:38.303Z,2.95
2022-09-12T06:37:41.062Z,2.80
2022-09-12T06:42:42.880Z,2.92
2022-09-12T06:47:44.646Z,4.35
2022-09-12T06:52:49.421Z,4.63
2022-09-12T06:57:52.551Z,5.00
2022-09-12T07:02:56.740Z,5.78
2022-09-12T07:07:58.518Z,4.43
2022-09-12T07:13:00.626Z,3.70
2022-09-12T07:18:03.047Z,5.32
2022-09-12T07:23:04.894Z,3.97
2022-09-12T07:28:06.748Z,4.75
2022-09-12T07:33:08.855Z,3.85
2022-09-12T07:38:10.592Z,4.30
2022-09-12T07:43:12.661Z,4.65
2022-09-12T07:48:14.407Z,3.47
2022-09-12T07:53:16.228Z,6.15
2022-09-12T07:58:18.059Z,6.10
2022-09-12T08:03:19.874Z,6.47
2022-09-12T08:08:21.834Z,5.78
2022-09-12T08:13:23.818Z,6.18
2022-09-12T08:18:29.413Z,5.85
2022-09-12T08:23:31.984Z,5.05
2022-09-12T08:28:35.634Z,4.78
2022-09-12T08:33:38.206Z,3.53
2022-09-12T08:38:42.754Z,3.63
2022-09-12T08:44:09.673Z,3.50
2022-09-12T08:49:15.600Z,3.40
2022-09-12T08:54:24.957Z,4.05
2022-09-12T08:59:27.345Z,4.10
2022-09-12T09:04:35.006Z,3.92
2022-09-12T09:10:01.393Z,3.53
2022-09-12T09:15:34.569Z,3.80
2022-09-12T09:20:44.340Z,3.90
2022-09-12T09:25:52.793Z,3.55
2022-09-12T09:30:55.528Z,3.15
2022-09-12T09:36:35.069Z,2.75
2022-09-12T09:41:49.533Z,2.42
2022-09-12T09:46:55.950Z,2.65
2022-09-12T09:52:01.207Z,2.05
2022-09-12T09:57:04.070Z,2.67
2022-09-12T10:02:14.910Z,2.72
2022-09-12T10:07:22.055Z,2.30
2022-09-12T10:12:29.080Z,1.70
2022-09-12T10:17:39.403Z,1.88
2022-09-12T10:22:41.335Z,1.70
2022-09-12T10:27:43.254Z,1.40
2022-09-12T10:32:51.677Z,1.52
2022-09-12T10:38:07.621Z,1.70
2022-09-12T10:43:33.681Z,1.13
2022-09-12T10:48:36.452Z,1.15
2022-09-12T10:53:44.408Z,1.23
2022-09-12T10:59:07.684Z,1.63
2022-09-12T11:04:31.095Z,1.38
2022-09-12T11:09:45.856Z,1.10
2022-09-12T11:15:12.298Z,1.45
2022-09-12T11:20:28.315Z,0.98
2022-09-12T11:25:41.855Z,1.10
2022-09-12T11:31:00.204Z,1.25
2022-09-12T11:36:05.313Z,1.30
2022-09-12T11:41:31.752Z,1.48
2022-09-12T11:46:39.465Z,0.82
2022-09-12T11:52:14.865Z,1.50
2022-09-12T11:57:25.470Z,1.10
2022-09-12T12:02:29.939Z,1.42
2022-09-12T12:07:45.449Z,1.33
2022-09-12T12:12:48.436Z,1.15
2022-09-12T12:18:18.139Z,1.05
2022-09-12T12:23:23.641Z,1.35
2022-09-12T12:28:50.584Z,1.30
2022-09-12T12:33:53.829Z,1.10
2022-09-12T12:38:55.908Z,1.30
2022-09-12T12:43:58.033Z,0.80
2022-09-12T12:49:20.067Z,1.05
2022-09-12T12:54:41.618Z,0.88
2022-09-12T12:59:54.658Z,1.10
2022-09-12T13:04:58.254Z,0.93
2022-09-12T13:10:01.775Z,0.90
2022-09-12T13:15:47.792Z,0.63
2022-09-12T13:21:11.966Z,1.05
2022-09-12T13:26:23.240Z,0.75
2022-09-12T13:31:28.922Z,0.90
2022-09-12T13:36:51.062Z,0.80
2022-09-12T13:42:30.757Z,0.70
2022-09-12T13:47:38.798Z,0.85
2022-09-12T13:52:40.732Z,0.90
2022-09-12T13:57:42.666Z,0.93
2022-09-12T14:02:44.795Z,0.98
2022-09-12T14:07:56.369Z,1.00
2022-09-12T14:13:00.491Z,0.70
2022-09-12T14:18:04.307Z,1.00
2022-09-12T14:23:31.121Z,0.80
2022-09-12T14:28:34.495Z,1.00
2022-09-12T14:33:54.051Z,0.68
2022-09-12T14:38:59.573Z,0.80
2022-09-12T14:44:05.538Z,0.80
2022-09-12T14:49:33.901Z,0.75
2022-09-12T14:54:37.531Z,0.80
2022-09-12T14:59:40.918Z,0.90
2022-09-12T15:05:08.801Z,1.75
2022-09-12T15:10:32.566Z,1.13
2022-09-12T15:15:34.245Z,1.10
2022-09-12T15:20:41.242Z,0.95
2022-09-12T15:25:43.120Z,1.35
2022-09-12T15:30:45.529Z,1.13
2022-09-12T15:35:47.659Z,0.82
2022-09-12T15:40:54.157Z,1.00
2022-09-12T15:45:55.879Z,1.23
2022-09-12T15:51:01.685Z,1.20
2022-09-12T15:56:03.650Z,1.05
2022-09-12T16:01:05.943Z,1.08
2022-09-12T16:06:09.672Z,0.90
2022-09-12T16:11:22.151Z,1.05
2022-09-12T16:16:25.079Z,0.95
2022-09-12T16:21:28.212Z,1.20
2022-09-12T16:26:29.848Z,0.90
2022-09-12T16:31:31.925Z,1.08
2022-09-12T16:36:33.842Z,0.82
2022-09-12T16:41:35.618Z,1.08
2022-09-12T16:46:37.440Z,0.75
2022-09-12T16:51:39.310Z,0.88
2022-09-12T16:56:41.897Z,0.90
2022-09-12T17:01:45.313Z,0.85
2022-09-12T17:06:47.061Z,0.90
2022-09-12T17:11:49.863Z,0.77
2022-09-12T17:16:52.373Z,0.80
2022-09-12T17:21:55.012Z,0.90
2022-09-12T17:26:57.365Z,0.95
2022-09-12T17:31:59.289Z,0.63
2022-09-12T17:37:01.073Z,0.90
2022-09-12T17:42:02.859Z,0.95
2022-09-12T17:47:05.694Z,1.27
2022-09-12T17:52:07.436Z,1.40
2022-09-12T17:57:09.304Z,1.35
2022-09-12T18:02:14.647Z,2.53
2022-09-12T18:07:20.520Z,1.40
2022-09-12T18:12:22.513Z,1.48
2022-09-12T18:17:24.727Z,1.70
2022-09-12T18:22:26.682Z,1.17
2022-09-12T18:27:28.754Z,1.35
2022-09-12T18:32:30.560Z,1.05
2022-09-12T18:37:32.519Z,1.70
2022-09-12T18:42:34.389Z,1.25
2022-09-12T18:47:36.190Z,1.42
2022-09-12T18:52:38.006Z,0.93
2022-09-12T18:57:41.702Z,1.00
2022-09-12T19:02:43.705Z,1.13
2022-09-12T19:07:45.476Z,1.40
2022-09-12T19:12:47.567Z,1.02
2022-09-12T19:17:49.879Z,1.35
2022-09-12T19:22:51.766Z,1.20
2022-09-12T19:27:53.619Z,1.80
2022-09-12T19:32:55.487Z,1.55
2022-09-12T19:37:57.379Z,1.00
2022-09-12T19:42:59.834Z,1.30
2022-09-12T19:48:02.173Z,0.98
2022-09-12T19:53:04.286Z,1.58
2022-09-12T19:58:06.371Z,0.80
2022-09-12T20:03:08.163Z,1.20
2022-09-12T20:08:10.279Z,1.23
2022-09-12T20:13:12.575Z,0.90
2022-09-12T20:18:14.532Z,1.00
2022-09-12T20:23:16.547Z,1.15
2022-09-12T20:28:18.392Z,1.33
2022-09-12T20:33:20.290Z,0.90
2022-09-12T20:38:22.171Z,1.25
2022-09-12T20:43:23.977Z,0.98
2022-09-12T20:48:26.418Z,1.10
2022-09-12T20:53:31.732Z,1.02
2022-09-12T20:58:39.365Z,1.35
2022-09-12T21:03:45.982Z,0.95
2022-09-12T21:08:49.218Z,1.02
2022-09-12T21:13:52.671Z,0.90
2022-09-12T21:18:57.378Z,1.00
2022-09-12T21:24:03.254Z,0.93
2022-09-12T21:29:05.190Z,1.02
2022-09-12T21:34:07.159Z,0.80
2022-09-12T21:39:09.049Z,1.00
2022-09-12T21:44:10.991Z,1.00
2022-09-12T21:49:12.827Z,0.90
2022-09-12T21:54:14.517Z,0.90
2022-09-12T21:59:16.403Z,1.10
2022-09-12T22:04:18.263Z,1.20
2022-09-12T22:09:20.247Z,1.08
2022-09-12T22:14:22.260Z,1.27
2022-09-12T22:19:24.580Z,0.88
2022-09-12T22:24:29.361Z,0.88
2022-09-12T22:29:31.362Z,1.00
2022-09-12T22:34:33.359Z,0.70
2022-09-12T22:39:35.214Z,0.68
2022-09-12T22:44:36.961Z,0.90
2022-09-12T22:49:38.728Z,0.82
2022-09-12T22:54:40.514Z,1.17
2022-09-12T22:59:42.370Z,0.77
2022-09-12T23:04:44.501Z,1.10
2022-09-12T23:09:46.557Z,0.68
2022-09-12T23:14:48.438Z,0.95
2022-09-12T23:19:50.453Z,1.00
2022-09-12T23:24:52.343Z,0.80
2022-09-12T23:29:54.543Z,0.90
2022-09-12T23:34:56.483Z,0.80
2022-09-12T23:39:58.436Z,0.82
2022-09-12T23:45:00.426Z,0.80
2022-09-12T23:50:02.388Z,0.82
2022-09-12T23:55:04.552Z,0.80
